sensor_id;sensor_type;location;lat;lon;timestamp;P1;durP1;ratioP1;P2;durP2;ratioP2
28613;SDS011;15806;53.548;9.964;2023-08-07T00:00:56;2.30;;;1.50;;
28613;SDS011;15806;53.548;9.964;2023-08-07T00:02:36;2.23;;;1.07;;
28613;SDS011;15806;53.548;9.964;2023-08-07T00:04:17;4.67;;;1.20;;
28613;SDS011;15806;53.548;9.964;2023-08-07T00:05:57;2.27;;;1.20;;
28613;SDS011;15806;53.548;9.964;2023-08-07T00:07:38;3.60;;;1.30;;
28613;SDS011;15806;53.548;9.964;2023-08-07T00:09:18;4.63;;;1.90;;
28613;SDS011;15806;53.548;9.964;2023-08-07T00:11:06;4.07;;;1.50;;
28613;SDS011;15806;53.548;9.964;2023-08-07T00:12:47;5.57;;;1.80;;
28613;SDS011;15806;53.548;9.964;2023-08-07T00:14:27;3.47;;;1.20;;
28613;SDS011;15806;53.548;9.964;2023-08-07T00:16:08;3.40;;;1.50;;
28613;SDS011;15806;53.548;9.964;2023-08-07T00:17:49;1.33;;;0.80;;
28613;SDS011;15806;53.548;9.964;2023-08-07T00:19:29;3.37;;;1.10;;
28613;SDS011;15806;53.548;9.964;2023-08-07T00:21:10;2.00;;;1.17;;
28613;SDS011;15806;53.548;9.964;2023-08-07T00:22:50;3.50;;;1.10;;
28613;SDS011;15806;53.548;9.964;2023-08-07T00:24:31;2.20;;;1.03;;
28613;SDS011;15806;53.548;9.964;2023-08-07T00:26:11;1.73;;;1.03;;
28613;SDS011;15806;53.548;9.964;2023-08-07T00:27:52;3.93;;;1.13;;
28613;SDS011;15806;53.548;9.964;2023-08-07T00:29:32;3.03;;;1.60;;
28613;SDS011;15806;53.548;9.964;2023-08-07T00:31:13;2.70;;;1.20;;
28613;SDS011;15806;53.548;9.964;2023-08-07T00:32:53;4.40;;;1.40;;
28613;SDS011;15806;53.548;9.964;2023-08-07T00:34:34;2.20;;;1.00;;
28613;SDS011;15806;53.548;9.964;2023-08-07T00:36:14;3.50;;;1.27;;
28613;SDS011;15806;53.548;9.964;2023-08-07T00:37:55;2.87;;;1.00;;
28613;SDS011;15806;53.548;9.964;2023-08-07T00:39:35;2.97;;;1.20;;
28613;SDS011;15806;53.548;9.964;2023-08-07T00:41:16;1.90;;;1.10;;
28613;SDS011;15806;53.548;9.964;2023-08-07T00:42:57;2.80;;;1.02;;
28613;SDS011;15806;53.548;9.964;2023-08-07T00:44:37;3.03;;;1.23;;
28613;SDS011;15806;53.548;9.964;2023-08-07T00:46:18;3.87;;;1.57;;
28613;SDS011;15806;53.548;9.964;2023-08-07T00:47:59;5.93;;;1.67;;
28613;SDS011;15806;53.548;9.964;2023-08-07T00:49:39;3.50;;;1.67;;
28613;SDS011;15806;53.548;9.964;2023-08-07T00:51:20;3.80;;;1.50;;
28613;SDS011;15806;53.548;9.964;2023-08-07T00:53:01;1.97;;;1.00;;
28613;SDS011;15806;53.548;9.964;2023-08-07T00:54:41;6.53;;;1.97;;
28613;SDS011;15806;53.548;9.964;2023-08-07T00:56:22;4.72;;;2.30;;
28613;SDS011;15806;53.548;9.964;2023-08-07T00:58:03;8.75;;;2.20;;
28613;SDS011;15806;53.548;9.964;2023-08-07T00:59:44;4.53;;;1.30;;
28613;SDS011;15806;53.548;9.964;2023-08-07T01:01:25;3.90;;;1.33;;
28613;SDS011;15806;53.548;9.964;2023-08-07T01:03:06;3.47;;;1.10;;
28613;SDS011;15806;53.548;9.964;2023-08-07T01:04:46;5.15;;;1.60;;
28613;SDS011;15806;53.548;9.964;2023-08-07T01:06:27;2.87;;;1.33;;
28613;SDS011;15806;53.548;9.964;2023-08-07T01:08:07;10.73;;;3.27;;
28613;SDS011;15806;53.548;9.964;2023-08-07T01:09:48;3.40;;;1.00;;
28613;SDS011;15806;53.548;9.964;2023-08-07T01:15:38;3.47;;;1.00;;
28613;SDS011;15806;53.548;9.964;2023-08-07T01:17:20;2.63;;;1.13;;
28613;SDS011;15806;53.548;9.964;2023-08-07T01:19:02;2.60;;;1.00;;
28613;SDS011;15806;53.548;9.964;2023-08-07T01:20:44;1.50;;;0.77;;
28613;SDS011;15806;53.548;9.964;2023-08-07T01:22:24;2.50;;;1.30;;
28613;SDS011;15806;53.548;9.964;2023-08-07T01:24:05;4.13;;;1.03;;
28613;SDS011;15806;53.548;9.964;2023-08-07T01:25:46;2.07;;;0.90;;
28613;SDS011;15806;53.548;9.964;2023-08-07T01:27:36;2.23;;;0.90;;
28613;SDS011;15806;53.548;9.964;2023-08-07T01:29:26;2.95;;;1.10;;
28613;SDS011;15806;53.548;9.964;2023-08-07T01:31:16;3.22;;;1.20;;
28613;SDS011;15806;53.548;9.964;2023-08-07T01:33:08;3.28;;;1.20;;
28613;SDS011;15806;53.548;9.964;2023-08-07T01:35:02;3.35;;;1.27;;
28613;SDS011;15806;53.548;9.964;2023-08-07T01:36:45;3.20;;;0.95;;
28613;SDS011;15806;53.548;9.964;2023-08-07T01:38:28;4.75;;;1.00;;
28613;SDS011;15806;53.548;9.964;2023-08-07T01:40:09;4.80;;;1.25;;
28613;SDS011;15806;53.548;9.964;2023-08-07T01:41:52;2.70;;;1.08;;
28613;SDS011;15806;53.548;9.964;2023-08-07T01:45:21;3.22;;;1.13;;
28613;SDS011;15806;53.548;9.964;2023-08-07T01:47:05;1.60;;;1.02;;
28613;SDS011;15806;53.548;9.964;2023-08-07T01:48:45;2.53;;;1.23;;
28613;SDS011;15806;53.548;9.964;2023-08-07T01:50:26;8.17;;;1.10;;
28613;SDS011;15806;53.548;9.964;2023-08-07T01:52:08;1.88;;;0.95;;
28613;SDS011;15806;53.548;9.964;2023-08-07T01:53:48;1.65;;;1.05;;
28613;SDS011;15806;53.548;9.964;2023-08-07T01:55:29;4.87;;;2.10;;
28613;SDS011;15806;53.548;9.964;2023-08-07T01:57:09;6.60;;;1.37;;
28613;SDS011;15806;53.548;9.964;2023-08-07T01:58:50;4.67;;;1.40;;
28613;SDS011;15806;53.548;9.964;2023-08-07T02:00:30;4.57;;;1.50;;
28613;SDS011;15806;53.548;9.964;2023-08-07T02:02:11;2.37;;;1.33;;
28613;SDS011;15806;53.548;9.964;2023-08-07T02:03:51;3.03;;;1.30;;
28613;SDS011;15806;53.548;9.964;2023-08-07T02:05:32;5.60;;;1.10;;
28613;SDS011;15806;53.548;9.964;2023-08-07T02:07:12;4.30;;;1.40;;
28613;SDS011;15806;53.548;9.964;2023-08-07T02:08:53;1.80;;;1.10;;
28613;SDS011;15806;53.548;9.964;2023-08-07T02:10:33;5.73;;;1.10;;
28613;SDS011;15806;53.548;9.964;2023-08-07T02:12:14;2.43;;;0.97;;
28613;SDS011;15806;53.548;9.964;2023-08-07T02:13:55;6.10;;;1.00;;
28613;SDS011;15806;53.548;9.964;2023-08-07T02:15:35;2.13;;;1.00;;
28613;SDS011;15806;53.548;9.964;2023-08-07T02:17:16;2.43;;;1.00;;
28613;SDS011;15806;53.548;9.964;2023-08-07T02:18:56;3.37;;;1.07;;
28613;SDS011;15806;53.548;9.964;2023-08-07T02:20:37;2.97;;;1.07;;
28613;SDS011;15806;53.548;9.964;2023-08-07T02:22:17;2.23;;;1.13;;
28613;SDS011;15806;53.548;9.964;2023-08-07T02:23:58;3.87;;;1.17;;
28613;SDS011;15806;53.548;9.964;2023-08-07T02:25:38;2.07;;;0.93;;
28613;SDS011;15806;53.548;9.964;2023-08-07T02:27:19;3.57;;;1.20;;
28613;SDS011;15806;53.548;9.964;2023-08-07T02:28:59;2.70;;;0.83;;
28613;SDS011;15806;53.548;9.964;2023-08-07T02:30:40;3.27;;;1.00;;
28613;SDS011;15806;53.548;9.964;2023-08-07T02:32:20;3.80;;;1.10;;
28613;SDS011;15806;53.548;9.964;2023-08-07T02:34:01;1.50;;;1.00;;
28613;SDS011;15806;53.548;9.964;2023-08-07T02:35:41;2.30;;;0.90;;
28613;SDS011;15806;53.548;9.964;2023-08-07T02:37:22;2.80;;;0.97;;
28613;SDS011;15806;53.548;9.964;2023-08-07T02:39:03;2.40;;;1.10;;
28613;SDS011;15806;53.548;9.964;2023-08-07T02:40:44;3.30;;;1.00;;
28613;SDS011;15806;53.548;9.964;2023-08-07T02:42:24;3.30;;;0.93;;
28613;SDS011;15806;53.548;9.964;2023-08-07T02:44:05;2.17;;;1.00;;
28613;SDS011;15806;53.548;9.964;2023-08-07T02:45:45;2.50;;;0.90;;
28613;SDS011;15806;53.548;9.964;2023-08-07T02:47:26;1.27;;;0.60;;
28613;SDS011;15806;53.548;9.964;2023-08-07T02:49:06;3.37;;;0.90;;
28613;SDS011;15806;53.548;9.964;2023-08-07T02:50:47;2.03;;;0.83;;
28613;SDS011;15806;53.548;9.964;2023-08-07T02:52:27;3.40;;;0.73;;
28613;SDS011;15806;53.548;9.964;2023-08-07T02:54:08;1.00;;;0.70;;
28613;SDS011;15806;53.548;9.964;2023-08-07T02:55:48;1.57;;;0.70;;
28613;SDS011;15806;53.548;9.964;2023-08-07T02:57:29;3.57;;;1.20;;
28613;SDS011;15806;53.548;9.964;2023-08-07T02:59:09;3.30;;;0.80;;
28613;SDS011;15806;53.548;9.964;2023-08-07T03:00:50;1.07;;;0.70;;
28613;SDS011;15806;53.548;9.964;2023-08-07T03:02:30;1.70;;;0.87;;
28613;SDS011;15806;53.548;9.964;2023-08-07T03:04:11;2.93;;;1.00;;
28613;SDS011;15806;53.548;9.964;2023-08-07T03:05:51;5.63;;;0.93;;
28613;SDS011;15806;53.548;9.964;2023-08-07T03:07:32;1.93;;;0.73;;
28613;SDS011;15806;53.548;9.964;2023-08-07T03:09:12;2.80;;;0.90;;
28613;SDS011;15806;53.548;9.964;2023-08-07T03:10:53;2.57;;;0.80;;
28613;SDS011;15806;53.548;9.964;2023-08-07T03:12:35;2.30;;;1.00;;
28613;SDS011;15806;53.548;9.964;2023-08-07T03:14:16;5.63;;;1.00;;
28613;SDS011;15806;53.548;9.964;2023-08-07T03:15:59;3.20;;;0.83;;
28613;SDS011;15806;53.548;9.964;2023-08-07T03:17:44;3.72;;;1.10;;
28613;SDS011;15806;53.548;9.964;2023-08-07T03:19:24;1.47;;;0.77;;
28613;SDS011;15806;53.548;9.964;2023-08-07T03:21:05;4.07;;;1.00;;
28613;SDS011;15806;53.548;9.964;2023-08-07T03:22:45;1.80;;;1.40;;
28613;SDS011;15806;53.548;9.964;2023-08-07T03:24:26;1.60;;;0.80;;
28613;SDS011;15806;53.548;9.964;2023-08-07T03:26:10;5.73;;;0.93;;
28613;SDS011;15806;53.548;9.964;2023-08-07T03:27:51;2.13;;;1.08;;
28613;SDS011;15806;53.548;9.964;2023-08-07T03:29:31;1.53;;;0.90;;
28613;SDS011;15806;53.548;9.964;2023-08-07T03:31:12;7.20;;;1.00;;
28613;SDS011;15806;53.548;9.964;2023-08-07T03:32:52;4.97;;;1.03;;
28613;SDS011;15806;53.548;9.964;2023-08-07T03:34:33;2.47;;;1.27;;
28613;SDS011;15806;53.548;9.964;2023-08-07T03:36:13;2.97;;;0.80;;
28613;SDS011;15806;53.548;9.964;2023-08-07T03:37:54;3.10;;;0.80;;
28613;SDS011;15806;53.548;9.964;2023-08-07T03:39:34;3.00;;;1.00;;
28613;SDS011;15806;53.548;9.964;2023-08-07T03:41:15;3.10;;;1.17;;
28613;SDS011;15806;53.548;9.964;2023-08-07T03:42:55;1.90;;;0.90;;
28613;SDS011;15806;53.548;9.964;2023-08-07T03:44:36;6.07;;;0.77;;
28613;SDS011;15806;53.548;9.964;2023-08-07T03:46:16;2.73;;;1.13;;
28613;SDS011;15806;53.548;9.964;2023-08-07T03:47:57;3.83;;;0.97;;
28613;SDS011;15806;53.548;9.964;2023-08-07T03:49:37;3.20;;;1.23;;
28613;SDS011;15806;53.548;9.964;2023-08-07T03:51:18;5.33;;;1.03;;
28613;SDS011;15806;53.548;9.964;2023-08-07T03:52:58;5.47;;;1.00;;
28613;SDS011;15806;53.548;9.964;2023-08-07T03:54:39;1.60;;;1.10;;
28613;SDS011;15806;53.548;9.964;2023-08-07T03:56:19;2.00;;;0.80;;
28613;SDS011;15806;53.548;9.964;2023-08-07T03:58:00;2.70;;;0.87;;
28613;SDS011;15806;53.548;9.964;2023-08-07T03:59:40;3.60;;;1.33;;
28613;SDS011;15806;53.548;9.964;2023-08-07T04:01:21;3.47;;;1.43;;
28613;SDS011;15806;53.548;9.964;2023-08-07T04:03:01;5.67;;;1.60;;
28613;SDS011;15806;53.548;9.964;2023-08-07T04:04:42;3.43;;;1.07;;
28613;SDS011;15806;53.548;9.964;2023-08-07T04:06:23;4.97;;;0.97;;
28613;SDS011;15806;53.548;9.964;2023-08-07T04:08:03;1.23;;;0.83;;
28613;SDS011;15806;53.548;9.964;2023-08-07T04:09:44;1.87;;;0.97;;
28613;SDS011;15806;53.548;9.964;2023-08-07T04:11:24;2.37;;;1.00;;
28613;SDS011;15806;53.548;9.964;2023-08-07T04:13:05;4.63;;;1.27;;
28613;SDS011;15806;53.548;9.964;2023-08-07T04:14:45;2.73;;;0.87;;
28613;SDS011;15806;53.548;9.964;2023-08-07T04:16:26;3.07;;;1.10;;
28613;SDS011;15806;53.548;9.964;2023-08-07T04:18:06;2.63;;;0.70;;
28613;SDS011;15806;53.548;9.964;2023-08-07T04:19:47;7.57;;;1.00;;
28613;SDS011;15806;53.548;9.964;2023-08-07T04:21:27;3.57;;;0.87;;
28613;SDS011;15806;53.548;9.964;2023-08-07T04:23:08;7.37;;;1.50;;
28613;SDS011;15806;53.548;9.964;2023-08-07T04:24:48;4.80;;;1.77;;
28613;SDS011;15806;53.548;9.964;2023-08-07T04:26:29;2.30;;;1.10;;
28613;SDS011;15806;53.548;9.964;2023-08-07T04:28:09;3.87;;;2.10;;
28613;SDS011;15806;53.548;9.964;2023-08-07T04:29:50;4.50;;;1.47;;
28613;SDS011;15806;53.548;9.964;2023-08-07T04:31:30;3.30;;;1.60;;
28613;SDS011;15806;53.548;9.964;2023-08-07T04:33:11;2.77;;;1.10;;
28613;SDS011;15806;53.548;9.964;2023-08-07T04:34:51;2.60;;;1.10;;
28613;SDS011;15806;53.548;9.964;2023-08-07T04:36:32;14.67;;;2.70;;
28613;SDS011;15806;53.548;9.964;2023-08-07T04:38:13;5.00;;;0.90;;
28613;SDS011;15806;53.548;9.964;2023-08-07T04:41:34;3.47;;;0.88;;
28613;SDS011;15806;53.548;9.964;2023-08-07T04:43:15;1.67;;;0.90;;
28613;SDS011;15806;53.548;9.964;2023-08-07T04:44:57;4.82;;;1.00;;
28613;SDS011;15806;53.548;9.964;2023-08-07T04:46:38;7.60;;;1.30;;
28613;SDS011;15806;53.548;9.964;2023-08-07T04:48:18;2.37;;;1.17;;
28613;SDS011;15806;53.548;9.964;2023-08-07T04:49:59;5.73;;;1.17;;
28613;SDS011;15806;53.548;9.964;2023-08-07T04:51:39;7.83;;;1.40;;
28613;SDS011;15806;53.548;9.964;2023-08-07T04:53:19;3.73;;;1.60;;
28613;SDS011;15806;53.548;9.964;2023-08-07T04:55:00;5.30;;;1.10;;
28613;SDS011;15806;53.548;9.964;2023-08-07T04:56:41;1.80;;;1.00;;
28613;SDS011;15806;53.548;9.964;2023-08-07T04:58:21;1.53;;;0.93;;
28613;SDS011;15806;53.548;9.964;2023-08-07T05:00:02;4.67;;;1.30;;
28613;SDS011;15806;53.548;9.964;2023-08-07T05:01:43;5.05;;;1.40;;
28613;SDS011;15806;53.548;9.964;2023-08-07T05:03:23;6.50;;;1.60;;
28613;SDS011;15806;53.548;9.964;2023-08-07T05:05:05;2.72;;;1.20;;
28613;SDS011;15806;53.548;9.964;2023-08-07T05:06:45;4.07;;;1.15;;
28613;SDS011;15806;53.548;9.964;2023-08-07T05:08:26;4.97;;;1.83;;
28613;SDS011;15806;53.548;9.964;2023-08-07T05:10:08;1.88;;;1.27;;
28613;SDS011;15806;53.548;9.964;2023-08-07T05:11:49;9.90;;;1.65;;
28613;SDS011;15806;53.548;9.964;2023-08-07T05:13:29;5.03;;;1.43;;
28613;SDS011;15806;53.548;9.964;2023-08-07T05:15:10;2.03;;;1.20;;
28613;SDS011;15806;53.548;9.964;2023-08-07T05:16:50;10.80;;;1.40;;
28613;SDS011;15806;53.548;9.964;2023-08-07T05:18:31;4.73;;;1.60;;
28613;SDS011;15806;53.548;9.964;2023-08-07T05:20:11;6.70;;;1.50;;
28613;SDS011;15806;53.548;9.964;2023-08-07T05:21:53;3.50;;;1.13;;
28613;SDS011;15806;53.548;9.964;2023-08-07T05:23:34;6.43;;;1.00;;
28613;SDS011;15806;53.548;9.964;2023-08-07T05:25:14;11.40;;;1.83;;
28613;SDS011;15806;53.548;9.964;2023-08-07T05:26:55;3.15;;;1.13;;
28613;SDS011;15806;53.548;9.964;2023-08-07T05:28:36;2.80;;;1.00;;
28613;SDS011;15806;53.548;9.964;2023-08-07T05:30:16;4.23;;;1.03;;
28613;SDS011;15806;53.548;9.964;2023-08-07T05:31:57;4.80;;;0.80;;
28613;SDS011;15806;53.548;9.964;2023-08-07T05:33:37;2.13;;;1.00;;
28613;SDS011;15806;53.548;9.964;2023-08-07T05:35:18;6.07;;;1.10;;
28613;SDS011;15806;53.548;9.964;2023-08-07T05:36:59;4.57;;;1.27;;
28613;SDS011;15806;53.548;9.964;2023-08-07T05:38:39;5.10;;;1.80;;
28613;SDS011;15806;53.548;9.964;2023-08-07T05:40:20;6.80;;;1.40;;
28613;SDS011;15806;53.548;9.964;2023-08-07T05:42:00;2.70;;;0.93;;
28613;SDS011;15806;53.548;9.964;2023-08-07T05:43:41;5.20;;;1.10;;
28613;SDS011;15806;53.548;9.964;2023-08-07T05:45:21;8.17;;;1.17;;
28613;SDS011;15806;53.548;9.964;2023-08-07T05:47:02;5.37;;;1.00;;
28613;SDS011;15806;53.548;9.964;2023-08-07T05:48:42;3.40;;;1.00;;
28613;SDS011;15806;53.548;9.964;2023-08-07T05:50:23;5.53;;;1.10;;
28613;SDS011;15806;53.548;9.964;2023-08-07T05:52:04;2.63;;;1.30;;
28613;SDS011;15806;53.548;9.964;2023-08-07T05:53:45;5.28;;;1.00;;
28613;SDS011;15806;53.548;9.964;2023-08-07T05:55:25;6.97;;;1.40;;
28613;SDS011;15806;53.548;9.964;2023-08-07T05:57:06;6.77;;;1.40;;
28613;SDS011;15806;53.548;9.964;2023-08-07T05:58:46;5.60;;;1.10;;
28613;SDS011;15806;53.548;9.964;2023-08-07T06:00:27;4.30;;;1.30;;
28613;SDS011;15806;53.548;9.964;2023-08-07T06:02:07;5.33;;;1.33;;
28613;SDS011;15806;53.548;9.964;2023-08-07T06:03:48;4.53;;;1.30;;
28613;SDS011;15806;53.548;9.964;2023-08-07T06:05:28;9.07;;;1.30;;
28613;SDS011;15806;53.548;9.964;2023-08-07T06:07:09;12.93;;;1.57;;
28613;SDS011;15806;53.548;9.964;2023-08-07T06:08:49;10.07;;;1.33;;
28613;SDS011;15806;53.548;9.964;2023-08-07T06:10:30;4.63;;;1.70;;
28613;SDS011;15806;53.548;9.964;2023-08-07T06:12:10;9.60;;;1.27;;
28613;SDS011;15806;53.548;9.964;2023-08-07T06:13:51;8.30;;;1.10;;
28613;SDS011;15806;53.548;9.964;2023-08-07T06:15:32;5.37;;;1.20;;
28613;SDS011;15806;53.548;9.964;2023-08-07T06:17:12;6.97;;;1.27;;
28613;SDS011;15806;53.548;9.964;2023-08-07T06:18:53;5.40;;;1.00;;
28613;SDS011;15806;53.548;9.964;2023-08-07T06:20:33;9.07;;;1.20;;
28613;SDS011;15806;53.548;9.964;2023-08-07T06:22:14;8.47;;;1.63;;
28613;SDS011;15806;53.548;9.964;2023-08-07T06:23:54;4.53;;;1.40;;
28613;SDS011;15806;53.548;9.964;2023-08-07T06:25:35;6.77;;;1.30;;
28613;SDS011;15806;53.548;9.964;2023-08-07T06:27:15;5.17;;;1.10;;
28613;SDS011;15806;53.548;9.964;2023-08-07T06:28:56;12.80;;;1.43;;
28613;SDS011;15806;53.548;9.964;2023-08-07T06:30:36;9.47;;;1.70;;
28613;SDS011;15806;53.548;9.964;2023-08-07T06:32:17;6.13;;;1.30;;
28613;SDS011;15806;53.548;9.964;2023-08-07T06:33:57;6.70;;;1.40;;
28613;SDS011;15806;53.548;9.964;2023-08-07T06:35:38;8.57;;;1.33;;
28613;SDS011;15806;53.548;9.964;2023-08-07T06:37:19;7.18;;;1.33;;
28613;SDS011;15806;53.548;9.964;2023-08-07T06:39:00;6.40;;;1.10;;
28613;SDS011;15806;53.548;9.964;2023-08-07T06:40:40;5.97;;;1.00;;
28613;SDS011;15806;53.548;9.964;2023-08-07T06:42:21;14.93;;;1.67;;
28613;SDS011;15806;53.548;9.964;2023-08-07T06:44:01;8.00;;;1.33;;
28613;SDS011;15806;53.548;9.964;2023-08-07T06:45:42;12.10;;;1.43;;
28613;SDS011;15806;53.548;9.964;2023-08-07T06:47:22;10.43;;;1.40;;
28613;SDS011;15806;53.548;9.964;2023-08-07T06:49:03;6.40;;;0.93;;
28613;SDS011;15806;53.548;9.964;2023-08-07T06:50:43;8.50;;;1.60;;
28613;SDS011;15806;53.548;9.964;2023-08-07T06:52:26;7.70;;;1.30;;
28613;SDS011;15806;53.548;9.964;2023-08-07T06:54:06;12.03;;;1.53;;
28613;SDS011;15806;53.548;9.964;2023-08-07T06:55:47;4.57;;;1.60;;
28613;SDS011;15806;53.548;9.964;2023-08-07T06:57:27;5.23;;;1.27;;
28613;SDS011;15806;53.548;9.964;2023-08-07T06:59:08;11.40;;;1.80;;
28613;SDS011;15806;53.548;9.964;2023-08-07T07:00:50;10.73;;;1.57;;
28613;SDS011;15806;53.548;9.964;2023-08-07T07:02:30;9.57;;;1.70;;
28613;SDS011;15806;53.548;9.964;2023-08-07T07:04:31;9.07;;;1.33;;
28613;SDS011;15806;53.548;9.964;2023-08-07T07:06:36;10.65;;;1.52;;
28613;SDS011;15806;53.548;9.964;2023-08-07T07:08:20;15.40;;;2.03;;
28613;SDS011;15806;53.548;9.964;2023-08-07T07:12:29;8.23;;;1.65;;
28613;SDS011;15806;53.548;9.964;2023-08-07T07:14:42;8.45;;;1.67;;
28613;SDS011;15806;53.548;9.964;2023-08-07T07:16:26;8.85;;;1.63;;
28613;SDS011;15806;53.548;9.964;2023-08-07T07:18:06;11.35;;;1.80;;
28613;SDS011;15806;53.548;9.964;2023-08-07T07:21:59;7.70;;;1.50;;
28613;SDS011;15806;53.548;9.964;2023-08-07T07:28:44;8.32;;;1.58;;
28613;SDS011;15806;53.548;9.964;2023-08-07T07:30:49;16.73;;;1.85;;
28613;SDS011;15806;53.548;9.964;2023-08-07T07:37:29;10.90;;;1.35;;
28613;SDS011;15806;53.548;9.964;2023-08-07T07:41:27;9.35;;;2.13;;
28613;SDS011;15806;53.548;9.964;2023-08-07T07:43:17;9.57;;;1.42;;
28613;SDS011;15806;53.548;9.964;2023-08-07T07:44:58;7.10;;;1.30;;
28613;SDS011;15806;53.548;9.964;2023-08-07T07:46:41;7.53;;;1.60;;
28613;SDS011;15806;53.548;9.964;2023-08-07T07:48:22;7.97;;;1.75;;
28613;SDS011;15806;53.548;9.964;2023-08-07T07:50:24;10.07;;;1.77;;
28613;SDS011;15806;53.548;9.964;2023-08-07T07:52:05;9.23;;;1.58;;
28613;SDS011;15806;53.548;9.964;2023-08-07T07:53:49;9.15;;;1.90;;
28613;SDS011;15806;53.548;9.964;2023-08-07T07:55:30;13.02;;;1.75;;
28613;SDS011;15806;53.548;9.964;2023-08-07T07:57:11;12.17;;;1.40;;
28613;SDS011;15806;53.548;9.964;2023-08-07T07:59:01;6.80;;;1.63;;
28613;SDS011;15806;53.548;9.964;2023-08-07T08:00:41;8.63;;;1.88;;
28613;SDS011;15806;53.548;9.964;2023-08-07T08:02:22;11.17;;;1.83;;
28613;SDS011;15806;53.548;9.964;2023-08-07T08:04:03;9.20;;;1.40;;
28613;SDS011;15806;53.548;9.964;2023-08-07T08:05:43;9.83;;;2.47;;
28613;SDS011;15806;53.548;9.964;2023-08-07T08:07:24;8.30;;;1.77;;
28613;SDS011;15806;53.548;9.964;2023-08-07T08:09:04;7.70;;;2.13;;
28613;SDS011;15806;53.548;9.964;2023-08-07T08:10:45;10.27;;;1.97;;
28613;SDS011;15806;53.548;9.964;2023-08-07T08:12:26;10.43;;;1.93;;
28613;SDS011;15806;53.548;9.964;2023-08-07T08:14:06;10.07;;;2.10;;
28613;SDS011;15806;53.548;9.964;2023-08-07T08:15:47;9.67;;;1.80;;
28613;SDS011;15806;53.548;9.964;2023-08-07T08:17:27;10.37;;;1.93;;
28613;SDS011;15806;53.548;9.964;2023-08-07T08:19:08;8.57;;;1.97;;
28613;SDS011;15806;53.548;9.964;2023-08-07T08:20:48;9.63;;;1.80;;
28613;SDS011;15806;53.548;9.964;2023-08-07T08:22:30;16.67;;;1.90;;
28613;SDS011;15806;53.548;9.964;2023-08-07T08:24:10;13.63;;;1.80;;
28613;SDS011;15806;53.548;9.964;2023-08-07T08:25:51;8.80;;;1.53;;
28613;SDS011;15806;53.548;9.964;2023-08-07T08:27:32;13.53;;;1.70;;
28613;SDS011;15806;53.548;9.964;2023-08-07T08:29:14;13.83;;;1.90;;
28613;SDS011;15806;53.548;9.964;2023-08-07T08:30:54;9.57;;;1.80;;
28613;SDS011;15806;53.548;9.964;2023-08-07T08:32:35;9.73;;;2.07;;
28613;SDS011;15806;53.548;9.964;2023-08-07T08:34:15;5.90;;;2.00;;
28613;SDS011;15806;53.548;9.964;2023-08-07T08:35:56;10.60;;;1.93;;
28613;SDS011;15806;53.548;9.964;2023-08-07T08:37:36;5.83;;;1.40;;
28613;SDS011;15806;53.548;9.964;2023-08-07T08:39:17;8.90;;;1.70;;
28613;SDS011;15806;53.548;9.964;2023-08-07T08:40:58;8.77;;;1.50;;
28613;SDS011;15806;53.548;9.964;2023-08-07T08:42:43;8.07;;;1.58;;
28613;SDS011;15806;53.548;9.964;2023-08-07T08:44:24;7.35;;;1.95;;
28613;SDS011;15806;53.548;9.964;2023-08-07T08:46:06;10.07;;;1.58;;
28613;SDS011;15806;53.548;9.964;2023-08-07T08:47:48;18.40;;;2.35;;
28613;SDS011;15806;53.548;9.964;2023-08-07T08:49:33;16.42;;;1.70;;
28613;SDS011;15806;53.548;9.964;2023-08-07T08:51:17;20.02;;;1.95;;
28613;SDS011;15806;53.548;9.964;2023-08-07T08:53:00;12.13;;;1.90;;
28613;SDS011;15806;53.548;9.964;2023-08-07T08:54:43;16.00;;;2.05;;
28613;SDS011;15806;53.548;9.964;2023-08-07T08:56:24;11.52;;;2.08;;
28613;SDS011;15806;53.548;9.964;2023-08-07T08:58:04;16.00;;;1.63;;
28613;SDS011;15806;53.548;9.964;2023-08-07T08:59:45;12.33;;;1.70;;
28613;SDS011;15806;53.548;9.964;2023-08-07T09:01:26;8.40;;;1.70;;
28613;SDS011;15806;53.548;9.964;2023-08-07T09:03:07;10.23;;;2.15;;
28613;SDS011;15806;53.548;9.964;2023-08-07T09:04:48;16.73;;;2.70;;
28613;SDS011;15806;53.548;9.964;2023-08-07T09:06:28;10.87;;;1.97;;
28613;SDS011;15806;53.548;9.964;2023-08-07T09:08:11;6.90;;;1.20;;
28613;SDS011;15806;53.548;9.964;2023-08-07T09:09:53;7.68;;;1.70;;
28613;SDS011;15806;53.548;9.964;2023-08-07T09:11:34;11.48;;;2.05;;
28613;SDS011;15806;53.548;9.964;2023-08-07T09:13:15;14.18;;;2.15;;
28613;SDS011;15806;53.548;9.964;2023-08-07T09:15:02;6.85;;;1.70;;
28613;SDS011;15806;53.548;9.964;2023-08-07T09:16:47;4.13;;;1.10;;
28613;SDS011;15806;53.548;9.964;2023-08-07T09:18:28;15.63;;;2.00;;
28613;SDS011;15806;53.548;9.964;2023-08-07T09:20:09;8.77;;;1.83;;
28613;SDS011;15806;53.548;9.964;2023-08-07T09:21:50;9.07;;;1.73;;
28613;SDS011;15806;53.548;9.964;2023-08-07T09:23:30;9.70;;;1.50;;
28613;SDS011;15806;53.548;9.964;2023-08-07T09:25:11;8.70;;;1.73;;
28613;SDS011;15806;53.548;9.964;2023-08-07T09:26:51;8.47;;;1.40;;
28613;SDS011;15806;53.548;9.964;2023-08-07T09:28:32;7.23;;;1.50;;
28613;SDS011;15806;53.548;9.964;2023-08-07T09:30:13;8.20;;;1.97;;
28613;SDS011;15806;53.548;9.964;2023-08-07T09:31:56;5.43;;;1.60;;
28613;SDS011;15806;53.548;9.964;2023-08-07T09:33:36;4.90;;;1.20;;
28613;SDS011;15806;53.548;9.964;2023-08-07T09:35:22;10.95;;;1.55;;
28613;SDS011;15806;53.548;9.964;2023-08-07T09:37:02;8.23;;;1.25;;
28613;SDS011;15806;53.548;9.964;2023-08-07T09:38:43;5.17;;;0.97;;
28613;SDS011;15806;53.548;9.964;2023-08-07T09:40:24;7.35;;;1.83;;
28613;SDS011;15806;53.548;9.964;2023-08-07T09:42:05;7.60;;;1.40;;
28613;SDS011;15806;53.548;9.964;2023-08-07T09:43:56;6.13;;;1.40;;
28613;SDS011;15806;53.548;9.964;2023-08-07T09:45:37;7.18;;;1.60;;
28613;SDS011;15806;53.548;9.964;2023-08-07T09:47:20;9.40;;;1.63;;
28613;SDS011;15806;53.548;9.964;2023-08-07T09:49:00;8.47;;;1.83;;
28613;SDS011;15806;53.548;9.964;2023-08-07T09:50:41;7.93;;;1.00;;
28613;SDS011;15806;53.548;9.964;2023-08-07T09:52:21;7.00;;;1.30;;
28613;SDS011;15806;53.548;9.964;2023-08-07T09:54:04;8.68;;;1.52;;
28613;SDS011;15806;53.548;9.964;2023-08-07T09:55:45;6.20;;;1.10;;
28613;SDS011;15806;53.548;9.964;2023-08-07T09:57:27;6.88;;;1.75;;
28613;SDS011;15806;53.548;9.964;2023-08-07T09:59:08;13.97;;;1.67;;
28613;SDS011;15806;53.548;9.964;2023-08-07T10:00:48;7.78;;;1.30;;
28613;SDS011;15806;53.548;9.964;2023-08-07T10:02:29;8.18;;;1.30;;
28613;SDS011;15806;53.548;9.964;2023-08-07T10:04:10;7.83;;;1.30;;
28613;SDS011;15806;53.548;9.964;2023-08-07T10:05:51;7.37;;;2.17;;
28613;SDS011;15806;53.548;9.964;2023-08-07T10:07:32;14.27;;;1.45;;
28613;SDS011;15806;53.548;9.964;2023-08-07T10:09:12;8.73;;;1.47;;
28613;SDS011;15806;53.548;9.964;2023-08-07T10:10:53;5.53;;;1.80;;
28613;SDS011;15806;53.548;9.964;2023-08-07T10:12:33;12.80;;;2.37;;
28613;SDS011;15806;53.548;9.964;2023-08-07T10:14:14;15.50;;;2.53;;
28613;SDS011;15806;53.548;9.964;2023-08-07T10:15:55;9.82;;;1.67;;
28613;SDS011;15806;53.548;9.964;2023-08-07T10:17:37;10.88;;;1.88;;
28613;SDS011;15806;53.548;9.964;2023-08-07T10:19:18;9.80;;;1.37;;
28613;SDS011;15806;53.548;9.964;2023-08-07T10:20:58;5.90;;;1.37;;
28613;SDS011;15806;53.548;9.964;2023-08-07T10:22:41;9.32;;;1.70;;
28613;SDS011;15806;53.548;9.964;2023-08-07T10:26:06;7.57;;;1.20;;
28613;SDS011;15806;53.548;9.964;2023-08-07T10:27:50;5.05;;;1.00;;
28613;SDS011;15806;53.548;9.964;2023-08-07T10:29:35;6.43;;;1.50;;
28613;SDS011;15806;53.548;9.964;2023-08-07T10:31:16;5.82;;;1.20;;
28613;SDS011;15806;53.548;9.964;2023-08-07T10:32:59;6.93;;;1.40;;
28613;SDS011;15806;53.548;9.964;2023-08-07T10:34:40;8.65;;;1.60;;
28613;SDS011;15806;53.548;9.964;2023-08-07T10:36:22;8.38;;;1.35;;